クライストチャーチ の空港の天気 - METARとTAF

クライストチャーチ国際空港 ( NZCH / CHC ) - ニュージーランド クライストチャーチ
飛行場実況気象(Metar)
観測時間06/18 19:30 NZST (06/18 07:30 UTC)
風向・風速南西 5m/s
視程4500m
天気現象弱い雨 もや
全天の8割程度の雲 雲底高度 180m
全天を覆う雲 雲底高度 340m
気温7℃
湿度93%
気圧1009hPa
METARNZCH 180730Z AUTO 23010KT 4500 -RA BR BKN006/// OVC011/// 07/06 Q1009 TEMPO 9999 SCT007 BKN012
過去の天気等 Google飛行場航空写真 Wunderground天気予報

過去48時間のMETAR

飛行場予報(TAF)
発表時間: 6/18 18:28 NZST (6/18 06:28 UTC)
予報対象時間: 18日18時 NZST ~ 19日18時 NZST
風向・風速南西 5m/s
視程10km以上
天気現象弱い霧雨
全天の8割程度の雲 雲底高度 370m
18日18時 NZST ~ 19日7時 NZST に一時的に
視程4000m
天気現象霧雨
全天の8割程度の雲 雲底高度 180m
19日10時 NZST から
風向・風速南西 5m/s
視程10km以上
全天の4割程度の雲 雲底高度 370m
全天の8割程度の雲 雲底高度 610m
TAF AMD NZCH 180628Z 1806/1906 23010KT 9999 -DZ BKN012
TEMPO 1806/1819 4000 DZ BKN006
FM182200 22010KT 9999 SCT012 BKN020